Miami, Florida
Current Conditions -  °F | °C
As of 5:53 AM on Friday 28 Nov 2014 (Local Time) from KMIA Reporting Station
Few Clouds Few Clouds  
Wind Chill: 53°   Ceiling: Unl
Heat Index: 53°   Visibility: 10mi
Dew Point: 42°   Wind: 12mph
Humidity: 66%   Direction: 340°NNW
Pressure: 30.19"   Gusts: NA
Location:  25.77°N, 80.19°W
Report Text: KMIA 281053Z 34010KT 10SM FEW040 12/06 A3019 RMK AO2 SLP224 T01170056
Loading
Personal Weather Stations






























Interactive Weather Map New forecast layout! Learn more

10-Day Weather Forecast

Advertisements
Track Severe Weather on mobile